sensor_id;sensor_type;location;lat;lon;timestamp;pressure;altitude;pressure_sealevel;temperature;humidity
72896;BME280;61036;53.224;6.554;2023-06-22T00:00:49;101996.22;;;22.91;100.00
72896;BME280;61036;53.224;6.554;2023-06-22T00:03:14;102002.28;;;22.95;100.00
72896;BME280;61036;53.224;6.554;2023-06-22T00:05:40;101997.47;;;22.97;100.00
72896;BME280;61036;53.224;6.554;2023-06-22T00:08:05;101987.50;;;22.96;100.00
72896;BME280;61036;53.224;6.554;2023-06-22T00:10:31;101997.53;;;22.71;100.00
72896;BME280;61036;53.224;6.554;2023-06-22T00:12:57;101992.94;;;22.88;100.00
72896;BME280;61036;53.224;6.554;2023-06-22T00:15:22;101996.81;;;22.60;100.00
72896;BME280;61036;53.224;6.554;2023-06-22T00:17:49;101995.66;;;22.79;100.00
72896;BME280;61036;53.224;6.554;2023-06-22T00:20:14;101996.84;;;22.69;100.00
72896;BME280;61036;53.224;6.554;2023-06-22T00:22:40;102000.88;;;22.48;100.00
72896;BME280;61036;53.224;6.554;2023-06-22T00:25:06;101996.28;;;22.57;100.00
72896;BME280;61036;53.224;6.554;2023-06-22T00:27:32;101997.56;;;22.36;100.00
72896;BME280;61036;53.224;6.554;2023-06-22T00:29:58;102000.19;;;22.46;100.00
72896;BME280;61036;53.224;6.554;2023-06-22T00:32:23;102004.72;;;22.64;100.00
72896;BME280;61036;53.224;6.554;2023-06-22T00:34:49;102008.38;;;22.38;100.00
72896;BME280;61036;53.224;6.554;2023-06-22T00:37:16;102012.03;;;22.47;100.00
72896;BME280;61036;53.224;6.554;2023-06-22T00:39:43;102009.03;;;22.74;100.00
72896;BME280;61036;53.224;6.554;2023-06-22T00:42:08;102007.09;;;22.58;100.00
72896;BME280;61036;53.224;6.554;2023-06-22T00:44:35;102014.03;;;22.71;100.00
72896;BME280;61036;53.224;6.554;2023-06-22T00:47:01;102006.47;;;22.73;100.00
72896;BME280;61036;53.224;6.554;2023-06-22T00:49:26;102019.53;;;22.71;100.00
72896;BME280;61036;53.224;6.554;2023-06-22T00:51:52;102016.41;;;22.57;100.00
72896;BME280;61036;53.224;6.554;2023-06-22T00:54:18;102012.06;;;22.55;100.00
72896;BME280;61036;53.224;6.554;2023-06-22T00:56:51;102015.25;;;22.76;100.00
72896;BME280;61036;53.224;6.554;2023-06-22T00:59:20;102010.66;;;22.85;100.00
72896;BME280;61036;53.224;6.554;2023-06-22T01:01:46;102014.72;;;22.73;100.00
72896;BME280;61036;53.224;6.554;2023-06-22T01:04:11;102016.16;;;22.85;100.00
72896;BME280;61036;53.224;6.554;2023-06-22T01:09:54;102016.91;;;23.03;100.00
72896;BME280;61036;53.224;6.554;2023-06-22T01:12:22;102009.28;;;22.89;100.00
72896;BME280;61036;53.224;6.554;2023-06-22T01:14:56;102008.84;;;23.10;100.00
72896;BME280;61036;53.224;6.554;2023-06-22T01:17:24;102007.22;;;22.91;100.00
72896;BME280;61036;53.224;6.554;2023-06-22T01:19:54;102008.28;;;22.98;100.00
72896;BME280;61036;53.224;6.554;2023-06-22T01:22:30;102003.84;;;23.05;100.00
72896;BME280;61036;53.224;6.554;2023-06-22T01:27:39;102006.38;;;22.91;100.00
72896;BME280;61036;53.224;6.554;2023-06-22T01:30:11;102006.66;;;22.79;100.00
72896;BME280;61036;53.224;6.554;2023-06-22T01:32:40;102001.88;;;22.81;100.00
72896;BME280;61036;53.224;6.554;2023-06-22T01:35:08;102004.44;;;22.75;100.00
72896;BME280;61036;53.224;6.554;2023-06-22T01:37:36;102001.13;;;22.29;100.00
72896;BME280;61036;53.224;6.554;2023-06-22T01:40:03;102000.13;;;22.30;100.00
72896;BME280;61036;53.224;6.554;2023-06-22T01:42:31;102000.06;;;22.22;100.00
72896;BME280;61036;53.224;6.554;2023-06-22T01:44:59;102003.13;;;22.19;100.00
72896;BME280;61036;53.224;6.554;2023-06-22T01:47:25;101993.94;;;22.10;100.00
72896;BME280;61036;53.224;6.554;2023-06-22T01:49:53;101989.50;;;22.09;100.00
72896;BME280;61036;53.224;6.554;2023-06-22T01:52:20;101989.50;;;22.09;100.00
72896;BME280;61036;53.224;6.554;2023-06-22T01:54:48;101982.03;;;22.01;100.00
72896;BME280;61036;53.224;6.554;2023-06-22T01:57:14;101985.72;;;21.84;100.00
72896;BME280;61036;53.224;6.554;2023-06-22T02:00:00;101977.56;;;22.18;100.00
72896;BME280;61036;53.224;6.554;2023-06-22T02:02:32;101985.56;;;22.11;100.00
72896;BME280;61036;53.224;6.554;2023-06-22T02:05:06;101984.84;;;22.09;100.00
72896;BME280;61036;53.224;6.554;2023-06-22T02:08:28;101985.84;;;22.00;100.00
72896;BME280;61036;53.224;6.554;2023-06-22T02:10:35;101990.47;;;22.00;100.00
72896;BME280;61036;53.224;6.554;2023-06-22T02:13:03;101983.09;;;22.00;100.00
72896;BME280;61036;53.224;6.554;2023-06-22T02:15:30;101990.22;;;21.93;100.00
72896;BME280;61036;53.224;6.554;2023-06-22T02:17:56;101986.69;;;22.01;100.00
72896;BME280;61036;53.224;6.554;2023-06-22T02:20:24;101985.31;;;22.05;100.00
72896;BME280;61036;53.224;6.554;2023-06-22T02:22:49;101990.34;;;21.83;100.00
72896;BME280;61036;53.224;6.554;2023-06-22T02:25:15;101987.38;;;21.77;100.00
72896;BME280;61036;53.224;6.554;2023-06-22T02:27:40;101987.31;;;21.68;100.00
72896;BME280;61036;53.224;6.554;2023-06-22T02:30:08;101977.06;;;21.97;100.00
72896;BME280;61036;53.224;6.554;2023-06-22T02:32:34;101976.94;;;21.80;100.00
72896;BME280;61036;53.224;6.554;2023-06-22T02:35:00;101969.41;;;21.82;100.00
72896;BME280;61036;53.224;6.554;2023-06-22T02:37:29;101970.00;;;21.94;100.00
72896;BME280;61036;53.224;6.554;2023-06-22T02:39:55;101974.06;;;21.90;100.00
72896;BME280;61036;53.224;6.554;2023-06-22T02:42:21;101974.97;;;21.90;100.00
72896;BME280;61036;53.224;6.554;2023-06-22T02:44:48;101975.88;;;21.73;100.00
72896;BME280;61036;53.224;6.554;2023-06-22T02:47:13;101978.03;;;21.87;100.00
72896;BME280;61036;53.224;6.554;2023-06-22T02:49:39;101975.94;;;21.81;100.00
72896;BME280;61036;53.224;6.554;2023-06-22T02:52:05;101985.03;;;21.82;100.00
72896;BME280;61036;53.224;6.554;2023-06-22T02:54:30;101990.66;;;21.80;100.00
72896;BME280;61036;53.224;6.554;2023-06-22T02:56:56;101990.31;;;21.75;100.00
72896;BME280;61036;53.224;6.554;2023-06-22T02:59:22;101986.53;;;21.76;100.00
72896;BME280;61036;53.224;6.554;2023-06-22T03:01:50;101985.34;;;21.79;100.00
72896;BME280;61036;53.224;6.554;2023-06-22T03:04:21;101982.97;;;21.84;100.00
72896;BME280;61036;53.224;6.554;2023-06-22T03:06:46;101988.44;;;21.84;100.00
72896;BME280;61036;53.224;6.554;2023-06-22T03:09:16;101988.13;;;21.87;100.00
72896;BME280;61036;53.224;6.554;2023-06-22T03:11:42;101989.88;;;21.88;100.00
72896;BME280;61036;53.224;6.554;2023-06-22T03:14:08;101996.66;;;21.76;100.00
72896;BME280;61036;53.224;6.554;2023-06-22T03:16:33;101986.75;;;21.83;100.00
72896;BME280;61036;53.224;6.554;2023-06-22T03:18:59;101995.84;;;21.83;100.00
72896;BME280;61036;53.224;6.554;2023-06-22T03:21:28;101985.50;;;22.03;100.00
72896;BME280;61036;53.224;6.554;2023-06-22T03:23:54;101990.88;;;21.87;100.00
72896;BME280;61036;53.224;6.554;2023-06-22T03:26:19;101991.25;;;21.92;100.00
72896;BME280;61036;53.224;6.554;2023-06-22T03:28:45;101984.72;;;21.93;100.00
72896;BME280;61036;53.224;6.554;2023-06-22T03:31:11;101986.81;;;21.91;100.00
72896;BME280;61036;53.224;6.554;2023-06-22T03:33:39;101982.16;;;21.91;100.00
72896;BME280;61036;53.224;6.554;2023-06-22T03:36:04;101983.53;;;21.87;100.00
72896;BME280;61036;53.224;6.554;2023-06-22T03:38:30;101988.69;;;21.90;100.00
72896;BME280;61036;53.224;6.554;2023-06-22T03:40:56;101993.53;;;21.97;100.00
72896;BME280;61036;53.224;6.554;2023-06-22T03:43:23;101993.94;;;21.84;100.00
72896;BME280;61036;53.224;6.554;2023-06-22T03:45:49;101993.63;;;21.87;100.00
72896;BME280;61036;53.224;6.554;2023-06-22T03:48:14;101991.03;;;21.59;100.00
72896;BME280;61036;53.224;6.554;2023-06-22T03:54:15;101983.94;;;21.75;100.00
72896;BME280;61036;53.224;6.554;2023-06-22T03:56:40;101978.72;;;21.89;100.00
72896;BME280;61036;53.224;6.554;2023-06-22T03:59:06;101984.59;;;21.95;100.00
72896;BME280;61036;53.224;6.554;2023-06-22T04:01:31;101980.13;;;21.94;100.00
72896;BME280;61036;53.224;6.554;2023-06-22T04:03:56;101977.38;;;21.94;100.00
72896;BME280;61036;53.224;6.554;2023-06-22T04:06:34;101969.72;;;22.31;100.00
72896;BME280;61036;53.224;6.554;2023-06-22T04:09:00;101972.22;;;21.90;100.00
72896;BME280;61036;53.224;6.554;2023-06-22T04:11:26;101976.34;;;21.95;100.00
72896;BME280;61036;53.224;6.554;2023-06-22T04:13:52;101977.09;;;22.05;100.00
72896;BME280;61036;53.224;6.554;2023-06-22T04:16:17;101981.03;;;22.02;100.00
72896;BME280;61036;53.224;6.554;2023-06-22T04:18:43;101981.50;;;21.98;100.00
72896;BME280;61036;53.224;6.554;2023-06-22T04:21:10;101971.06;;;22.27;100.00
72896;BME280;61036;53.224;6.554;2023-06-22T04:23:35;101978.31;;;22.10;100.00
72896;BME280;61036;53.224;6.554;2023-06-22T04:26:01;101984.34;;;22.14;100.00
72896;BME280;61036;53.224;6.554;2023-06-22T04:28:26;101991.72;;;22.13;100.00
72896;BME280;61036;53.224;6.554;2023-06-22T04:30:52;101994.59;;;22.04;100.00
72896;BME280;61036;53.224;6.554;2023-06-22T04:33:17;101994.09;;;22.26;100.00
72896;BME280;61036;53.224;6.554;2023-06-22T04:35:45;101991.47;;;22.51;100.00
72896;BME280;61036;53.224;6.554;2023-06-22T04:38:12;101987.28;;;22.39;100.00
72896;BME280;61036;53.224;6.554;2023-06-22T04:40:41;101983.34;;;22.49;100.00
72896;BME280;61036;53.224;6.554;2023-06-22T04:43:07;101972.31;;;22.41;100.00
72896;BME280;61036;53.224;6.554;2023-06-22T04:45:32;101966.19;;;22.55;100.00
72896;BME280;61036;53.224;6.554;2023-06-22T04:47:58;101980.13;;;22.62;100.00
72896;BME280;61036;53.224;6.554;2023-06-22T04:50:24;101975.31;;;22.56;100.00
72896;BME280;61036;53.224;6.554;2023-06-22T04:52:51;101966.59;;;22.77;100.00
72896;BME280;61036;53.224;6.554;2023-06-22T04:55:17;101960.09;;;22.86;100.00
72896;BME280;61036;53.224;6.554;2023-06-22T04:57:47;101965.34;;;23.05;100.00
72896;BME280;61036;53.224;6.554;2023-06-22T05:00:18;101961.56;;;23.15;100.00
72896;BME280;61036;53.224;6.554;2023-06-22T05:02:45;101955.03;;;23.65;100.00
72896;BME280;61036;53.224;6.554;2023-06-22T05:05:12;101961.22;;;23.67;100.00
72896;BME280;61036;53.224;6.554;2023-06-22T05:07:46;101966.38;;;23.86;100.00
72896;BME280;61036;53.224;6.554;2023-06-22T05:10:13;101957.44;;;23.84;100.00
72896;BME280;61036;53.224;6.554;2023-06-22T05:12:40;101966.56;;;24.40;100.00
72896;BME280;61036;53.224;6.554;2023-06-22T05:15:09;101968.38;;;24.96;100.00
72896;BME280;61036;53.224;6.554;2023-06-22T05:17:36;101971.16;;;24.87;100.00
72896;BME280;61036;53.224;6.554;2023-06-22T05:20:06;101973.09;;;24.79;100.00
72896;BME280;61036;53.224;6.554;2023-06-22T05:22:32;101970.34;;;24.39;100.00
72896;BME280;61036;53.224;6.554;2023-06-22T05:24:58;101980.66;;;24.85;100.00
72896;BME280;61036;53.224;6.554;2023-06-22T05:27:23;101981.31;;;24.64;100.00
72896;BME280;61036;53.224;6.554;2023-06-22T05:29:49;101978.63;;;24.48;100.00
72896;BME280;61036;53.224;6.554;2023-06-22T05:32:14;101974.16;;;24.47;100.00
72896;BME280;61036;53.224;6.554;2023-06-22T05:34:39;101977.41;;;24.50;100.00
72896;BME280;61036;53.224;6.554;2023-06-22T05:37:05;101982.41;;;25.09;100.00
72896;BME280;61036;53.224;6.554;2023-06-22T05:39:31;101978.50;;;25.72;100.00
72896;BME280;61036;53.224;6.554;2023-06-22T05:41:57;101977.03;;;26.14;100.00
72896;BME280;61036;53.224;6.554;2023-06-22T05:44:22;101972.53;;;25.23;100.00
72896;BME280;61036;53.224;6.554;2023-06-22T05:46:48;101978.91;;;24.92;100.00
72896;BME280;61036;53.224;6.554;2023-06-22T05:49:14;101973.94;;;24.87;100.00
72896;BME280;61036;53.224;6.554;2023-06-22T05:51:40;101975.50;;;24.51;100.00
72896;BME280;61036;53.224;6.554;2023-06-22T05:54:06;101974.16;;;24.78;100.00
72896;BME280;61036;53.224;6.554;2023-06-22T05:56:33;101967.75;;;24.85;100.00
72896;BME280;61036;53.224;6.554;2023-06-22T05:58:58;101971.53;;;24.84;100.00
72896;BME280;61036;53.224;6.554;2023-06-22T06:01:24;101965.72;;;24.79;100.00
72896;BME280;61036;53.224;6.554;2023-06-22T06:03:51;101969.75;;;25.23;100.00
72896;BME280;61036;53.224;6.554;2023-06-22T06:06:18;101970.44;;;25.25;100.00
72896;BME280;61036;53.224;6.554;2023-06-22T06:08:45;101974.31;;;25.07;100.00
72896;BME280;61036;53.224;6.554;2023-06-22T06:11:11;101973.75;;;25.20;100.00
72896;BME280;61036;53.224;6.554;2023-06-22T06:13:36;101981.72;;;24.84;100.00
72896;BME280;61036;53.224;6.554;2023-06-22T06:16:02;101974.44;;;25.22;100.00
72896;BME280;61036;53.224;6.554;2023-06-22T06:18:27;101977.78;;;25.09;100.00
72896;BME280;61036;53.224;6.554;2023-06-22T06:20:53;101970.06;;;25.28;100.00
72896;BME280;61036;53.224;6.554;2023-06-22T06:23:18;101980.53;;;24.47;100.00
72896;BME280;61036;53.224;6.554;2023-06-22T06:25:44;101989.25;;;24.59;100.00
72896;BME280;61036;53.224;6.554;2023-06-22T06:28:09;101984.91;;;25.50;100.00
72896;BME280;61036;53.224;6.554;2023-06-22T06:30:35;101982.66;;;24.99;100.00
72896;BME280;61036;53.224;6.554;2023-06-22T06:33:02;101979.69;;;25.55;100.00
72896;BME280;61036;53.224;6.554;2023-06-22T06:35:28;101981.50;;;25.86;100.00
72896;BME280;61036;53.224;6.554;2023-06-22T06:37:53;101979.56;;;25.25;100.00
72896;BME280;61036;53.224;6.554;2023-06-22T06:40:19;101984.47;;;25.38;100.00
72896;BME280;61036;53.224;6.554;2023-06-22T06:42:47;101990.41;;;25.73;100.00
72896;BME280;61036;53.224;6.554;2023-06-22T06:45:17;101991.88;;;25.98;100.00
72896;BME280;61036;53.224;6.554;2023-06-22T06:47:44;101980.38;;;26.10;100.00
72896;BME280;61036;53.224;6.554;2023-06-22T06:50:09;101980.84;;;25.98;100.00
72896;BME280;61036;53.224;6.554;2023-06-22T06:52:35;101981.31;;;26.17;100.00
72896;BME280;61036;53.224;6.554;2023-06-22T06:55:01;101986.97;;;26.23;100.00
72896;BME280;61036;53.224;6.554;2023-06-22T06:57:28;101983.41;;;26.00;100.00
72896;BME280;61036;53.224;6.554;2023-06-22T06:59:57;101983.06;;;26.33;100.00
72896;BME280;61036;53.224;6.554;2023-06-22T07:02:23;101986.28;;;26.21;100.00
72896;BME280;61036;53.224;6.554;2023-06-22T07:04:49;101984.59;;;26.20;100.00
72896;BME280;61036;53.224;6.554;2023-06-22T07:07:15;101979.94;;;26.51;100.00
72896;BME280;61036;53.224;6.554;2023-06-22T07:09:40;101982.53;;;26.44;100.00
72896;BME280;61036;53.224;6.554;2023-06-22T07:12:06;101992.75;;;26.29;100.00
72896;BME280;61036;53.224;6.554;2023-06-22T07:14:32;101988.41;;;26.49;100.00
72896;BME280;61036;53.224;6.554;2023-06-22T07:16:58;101981.59;;;27.03;100.00
72896;BME280;61036;53.224;6.554;2023-06-22T07:19:27;101990.31;;;27.00;100.00
72896;BME280;61036;53.224;6.554;2023-06-22T07:21:54;101986.09;;;26.67;100.00
72896;BME280;61036;53.224;6.554;2023-06-22T07:24:20;101977.09;;;27.17;100.00
72896;BME280;61036;53.224;6.554;2023-06-22T07:26:50;101981.66;;;27.24;100.00
72896;BME280;61036;53.224;6.554;2023-06-22T07:29:17;101975.53;;;27.29;100.00
72896;BME280;61036;53.224;6.554;2023-06-22T07:31:43;101981.13;;;26.78;100.00
72896;BME280;61036;53.224;6.554;2023-06-22T07:34:09;101972.84;;;26.63;100.00
72896;BME280;61036;53.224;6.554;2023-06-22T07:36:34;101968.97;;;27.36;100.00
72896;BME280;61036;53.224;6.554;2023-06-22T07:39:02;101973.47;;;27.59;100.00
72896;BME280;61036;53.224;6.554;2023-06-22T07:41:28;101971.94;;;27.56;100.00
72896;BME280;61036;53.224;6.554;2023-06-22T07:43:53;101973.28;;;27.18;100.00
72896;BME280;61036;53.224;6.554;2023-06-22T07:46:19;101972.47;;;27.73;100.00
72896;BME280;61036;53.224;6.554;2023-06-22T07:48:44;101964.97;;;27.18;100.00
72896;BME280;61036;53.224;6.554;2023-06-22T07:51:10;101960.47;;;27.59;100.00
72896;BME280;61036;53.224;6.554;2023-06-22T07:53:40;101957.50;;;27.68;100.00
72896;BME280;61036;53.224;6.554;2023-06-22T07:56:06;101956.59;;;27.82;100.00
72896;BME280;61036;53.224;6.554;2023-06-22T07:58:34;101948.00;;;28.05;100.00
72896;BME280;61036;53.224;6.554;2023-06-22T08:01:00;101940.81;;;27.11;100.00
72896;BME280;61036;53.224;6.554;2023-06-22T08:03:25;101947.31;;;27.96;100.00
72896;BME280;61036;53.224;6.554;2023-06-22T08:05:50;101933.13;;;27.78;100.00
72896;BME280;61036;53.224;6.554;2023-06-22T08:08:16;101935.66;;;27.51;100.00
72896;BME280;61036;53.224;6.554;2023-06-22T08:10:42;101941.09;;;27.17;100.00
72896;BME280;61036;53.224;6.554;2023-06-22T08:13:08;101939.06;;;28.10;100.00
72896;BME280;61036;53.224;6.554;2023-06-22T08:15:33;101935.13;;;27.91;100.00
72896;BME280;61036;53.224;6.554;2023-06-22T08:17:59;101940.97;;;27.74;100.00
72896;BME280;61036;53.224;6.554;2023-06-22T08:20:25;101937.72;;;27.71;100.00
72896;BME280;61036;53.224;6.554;2023-06-22T08:22:55;101943.91;;;28.77;100.00
72896;BME280;61036;53.224;6.554;2023-06-22T08:25:20;101944.72;;;27.95;100.00
72896;BME280;61036;53.224;6.554;2023-06-22T08:27:47;101935.91;;;29.15;100.00
72896;BME280;61036;53.224;6.554;2023-06-22T08:30:14;101938.25;;;29.78;100.00
72896;BME280;61036;53.224;6.554;2023-06-22T08:32:40;101931.84;;;29.71;97.75
72896;BME280;61036;53.224;6.554;2023-06-22T08:35:06;101926.25;;;29.98;97.57
72896;BME280;61036;53.224;6.554;2023-06-22T08:37:34;101933.00;;;30.35;94.78
72896;BME280;61036;53.224;6.554;2023-06-22T08:40:01;101935.69;;;31.00;90.36
72896;BME280;61036;53.224;6.554;2023-06-22T08:42:29;101933.56;;;30.95;91.43
72896;BME280;61036;53.224;6.554;2023-06-22T08:44:55;101927.25;;;31.88;91.63
72896;BME280;61036;53.224;6.554;2023-06-22T08:47:21;101933.00;;;31.50;86.52
72896;BME280;61036;53.224;6.554;2023-06-22T08:49:47;101930.56;;;31.35;88.12
72896;BME280;61036;53.224;6.554;2023-06-22T08:52:12;101925.44;;;31.26;86.64
72896;BME280;61036;53.224;6.554;2023-06-22T08:54:38;101935.31;;;30.96;89.02
72896;BME280;61036;53.224;6.554;2023-06-22T08:57:04;101921.16;;;29.75;91.63
72896;BME280;61036;53.224;6.554;2023-06-22T08:59:29;101923.88;;;30.21;92.78
72896;BME280;61036;53.224;6.554;2023-06-22T09:01:55;101920.28;;;30.97;93.61
72896;BME280;61036;53.224;6.554;2023-06-22T09:04:24;101922.97;;;30.79;88.75
72896;BME280;61036;53.224;6.554;2023-06-22T09:06:50;101912.44;;;30.88;88.35
72896;BME280;61036;53.224;6.554;2023-06-22T09:09:18;101903.44;;;31.17;88.24
72896;BME280;61036;53.224;6.554;2023-06-22T09:11:44;101911.81;;;31.11;88.42
72896;BME280;61036;53.224;6.554;2023-06-22T09:14:10;101910.75;;;30.73;86.90
72896;BME280;61036;53.224;6.554;2023-06-22T09:16:36;101905.19;;;31.62;85.78
72896;BME280;61036;53.224;6.554;2023-06-22T09:19:01;101903.31;;;31.56;88.66
72896;BME280;61036;53.224;6.554;2023-06-22T09:21:27;101909.28;;;30.71;89.23
72896;BME280;61036;53.224;6.554;2023-06-22T09:23:52;101904.81;;;31.77;90.86
72896;BME280;61036;53.224;6.554;2023-06-22T09:26:18;101906.09;;;31.31;85.54
72896;BME280;61036;53.224;6.554;2023-06-22T09:28:44;101903.13;;;31.26;85.74
72896;BME280;61036;53.224;6.554;2023-06-22T09:31:09;101898.75;;;31.61;88.37
72896;BME280;61036;53.224;6.554;2023-06-22T09:33:36;101892.75;;;31.83;85.99
72896;BME280;61036;53.224;6.554;2023-06-22T09:36:06;101896.84;;;30.73;86.21
72896;BME280;61036;53.224;6.554;2023-06-22T09:38:37;101899.41;;;32.25;82.69
72896;BME280;61036;53.224;6.554;2023-06-22T09:41:03;101892.81;;;31.58;84.13
72896;BME280;61036;53.224;6.554;2023-06-22T09:43:30;101881.44;;;31.59;84.36
72896;BME280;61036;53.224;6.554;2023-06-22T09:45:56;101886.88;;;32.65;85.10
72896;BME280;61036;53.224;6.554;2023-06-22T09:48:22;101888.28;;;32.19;84.01
72896;BME280;61036;53.224;6.554;2023-06-22T09:50:47;101884.59;;;32.85;81.48
72896;BME280;61036;53.224;6.554;2023-06-22T09:53:13;101887.38;;;32.06;80.82
72896;BME280;61036;53.224;6.554;2023-06-22T09:55:38;101890.63;;;31.41;84.44
72896;BME280;61036;53.224;6.554;2023-06-22T09:58:04;101883.16;;;30.65;87.47
72896;BME280;61036;53.224;6.554;2023-06-22T10:00:29;101874.53;;;29.30;94.28
72896;BME280;61036;53.224;6.554;2023-06-22T10:02:55;101875.19;;;29.46;98.64
72896;BME280;61036;53.224;6.554;2023-06-22T10:05:21;101868.25;;;30.91;93.72
72896;BME280;61036;53.224;6.554;2023-06-22T10:07:47;101866.56;;;30.00;93.52
72896;BME280;61036;53.224;6.554;2023-06-22T10:10:13;101868.41;;;30.65;94.30
72896;BME280;61036;53.224;6.554;2023-06-22T10:12:45;101874.50;;;30.87;95.26
72896;BME280;61036;53.224;6.554;2023-06-22T10:15:11;101863.56;;;31.17;92.90
72896;BME280;61036;53.224;6.554;2023-06-22T10:17:36;101865.06;;;31.45;86.46
72896;BME280;61036;53.224;6.554;2023-06-22T10:20:02;101870.09;;;31.29;86.35
72896;BME280;61036;53.224;6.554;2023-06-22T10:22:43;101863.97;;;32.26;90.52
72896;BME280;61036;53.224;6.554;2023-06-22T10:25:11;101854.00;;;31.31;85.05
72896;BME280;61036;53.224;6.554;2023-06-22T10:27:36;101869.34;;;31.65;85.86
72896;BME280;61036;53.224;6.554;2023-06-22T10:30:06;101867.16;;;31.49;88.03
72896;BME280;61036;53.224;6.554;2023-06-22T10:32:32;101856.88;;;30.61;89.53
72896;BME280;61036;53.224;6.554;2023-06-22T10:34:58;101847.78;;;31.04;92.73
72896;BME280;61036;53.224;6.554;2023-06-22T10:37:23;101844.69;;;31.44;90.31
72896;BME280;61036;53.224;6.554;2023-06-22T10:39:49;101852.25;;;31.80;88.40
72896;BME280;61036;53.224;6.554;2023-06-22T10:42:14;101852.66;;;32.02;86.96
72896;BME280;61036;53.224;6.554;2023-06-22T10:44:40;101844.56;;;31.57;88.76
72896;BME280;61036;53.224;6.554;2023-06-22T10:47:06;101846.59;;;32.05;88.00
72896;BME280;61036;53.224;6.554;2023-06-22T10:49:32;101853.56;;;31.78;86.60
72896;BME280;61036;53.224;6.554;2023-06-22T10:51:57;101844.06;;;31.17;87.67
72896;BME280;61036;53.224;6.554;2023-06-22T10:54:23;101845.03;;;31.73;87.95
72896;BME280;61036;53.224;6.554;2023-06-22T10:56:48;101843.53;;;31.27;93.72
72896;BME280;61036;53.224;6.554;2023-06-22T10:59:14;101840.91;;;30.82;91.90
72896;BME280;61036;53.224;6.554;2023-06-22T11:01:40;101838.84;;;29.47;94.00
72896;BME280;61036;53.224;6.554;2023-06-22T11:04:05;101836.69;;;28.96;99.88
72896;BME280;61036;53.224;6.554;2023-06-22T11:06:31;101826.59;;;31.03;95.75
72896;BME280;61036;53.224;6.554;2023-06-22T11:08:56;101832.63;;;31.00;94.80
72896;BME280;61036;53.224;6.554;2023-06-22T11:11:23;101828.41;;;30.91;91.79
72896;BME280;61036;53.224;6.554;2023-06-22T11:13:48;101824.16;;;30.50;91.26
72896;BME280;61036;53.224;6.554;2023-06-22T11:16:14;101830.41;;;30.77;93.87
72896;BME280;61036;53.224;6.554;2023-06-22T11:18:39;101827.53;;;32.02;89.98
72896;BME280;61036;53.224;6.554;2023-06-22T11:21:05;101831.66;;;30.88;90.15
72896;BME280;61036;53.224;6.554;2023-06-22T11:23:30;101827.34;;;31.60;91.26
72896;BME280;61036;53.224;6.554;2023-06-22T11:25:56;101825.13;;;32.06;90.88
72896;BME280;61036;53.224;6.554;2023-06-22T11:28:21;101825.56;;;31.48;93.82
72896;BME280;61036;53.224;6.554;2023-06-22T11:30:47;101834.03;;;32.15;90.45
72896;BME280;61036;53.224;6.554;2023-06-22T11:33:12;101827.44;;;30.79;99.41
72896;BME280;61036;53.224;6.554;2023-06-22T11:35:38;101828.63;;;30.89;94.30
72896;BME280;61036;53.224;6.554;2023-06-22T11:38:03;101828.91;;;30.74;92.21
72896;BME280;61036;53.224;6.554;2023-06-22T11:40:30;101831.06;;;31.04;98.31
72896;BME280;61036;53.224;6.554;2023-06-22T11:42:55;101826.13;;;31.31;94.81
72896;BME280;61036;53.224;6.554;2023-06-22T11:45:21;101830.97;;;30.92;88.77
72896;BME280;61036;53.224;6.554;2023-06-22T11:47:47;101827.72;;;31.46;92.63
72896;BME280;61036;53.224;6.554;2023-06-22T11:50:13;101831.00;;;30.86;91.38
72896;BME280;61036;53.224;6.554;2023-06-22T11:52:38;101826.66;;;31.21;95.32
72896;BME280;61036;53.224;6.554;2023-06-22T11:55:04;101820.34;;;30.76;93.60
72896;BME280;61036;53.224;6.554;2023-06-22T11:57:33;101816.13;;;29.83;99.35
72896;BME280;61036;53.224;6.554;2023-06-22T11:59:59;101821.75;;;29.64;100.00
72896;BME280;61036;53.224;6.554;2023-06-22T12:02:25;101815.41;;;30.46;97.72
72896;BME280;61036;53.224;6.554;2023-06-22T12:04:50;101814.38;;;30.41;99.13
72896;BME280;61036;53.224;6.554;2023-06-22T12:07:18;101816.03;;;31.12;94.05
72896;BME280;61036;53.224;6.554;2023-06-22T12:09:43;101814.91;;;30.24;97.49
72896;BME280;61036;53.224;6.554;2023-06-22T12:12:09;101813.97;;;31.01;95.06
72896;BME280;61036;53.224;6.554;2023-06-22T12:14:35;101801.34;;;30.98;94.51
72896;BME280;61036;53.224;6.554;2023-06-22T12:17:00;101802.78;;;30.75;100.00
72896;BME280;61036;53.224;6.554;2023-06-22T12:19:26;101798.06;;;30.83;94.28
72896;BME280;61036;53.224;6.554;2023-06-22T12:21:51;101786.44;;;30.16;95.12
72896;BME280;61036;53.224;6.554;2023-06-22T12:24:17;101788.06;;;30.68;96.20
72896;BME280;61036;53.224;6.554;2023-06-22T12:26:42;101785.03;;;30.45;95.88
72896;BME280;61036;53.224;6.554;2023-06-22T12:29:08;101789.41;;;30.91;97.43
72896;BME280;61036;53.224;6.554;2023-06-22T12:31:35;101785.34;;;30.93;100.00
72896;BME280;61036;53.224;6.554;2023-06-22T12:34:02;101779.03;;;30.41;100.00
72896;BME280;61036;53.224;6.554;2023-06-22T12:36:27;101780.31;;;29.09;100.00
72896;BME280;61036;53.224;6.554;2023-06-22T12:38:53;101772.38;;;30.04;100.00
72896;BME280;61036;53.224;6.554;2023-06-22T12:41:19;101759.69;;;30.21;100.00
72896;BME280;61036;53.224;6.554;2023-06-22T12:43:44;101777.50;;;30.07;100.00
72896;BME280;61036;53.224;6.554;2023-06-22T12:46:10;101779.34;;;30.58;100.00
72896;BME280;61036;53.224;6.554;2023-06-22T12:48:35;101770.94;;;30.40;98.34